createdAt,value
2022-09-07T00:00:53.729Z,100779.00
2022-09-07T00:03:21.973Z,100779.31
2022-09-07T00:05:51.552Z,100781.81
2022-09-07T00:08:21.961Z,100771.53
2022-09-07T00:11:12.314Z,100777.44
2022-09-07T00:13:41.241Z,100778.25
2022-09-07T00:16:13.026Z,100773.94
2022-09-07T00:18:45.575Z,100772.56
2022-09-07T00:21:16.263Z,100753.47
2022-09-07T00:23:44.829Z,100769.47
2022-09-07T00:26:15.008Z,100766.78
2022-09-07T00:28:43.975Z,100776.72
2022-09-07T00:31:19.908Z,100754.47
2022-09-07T00:33:49.196Z,100769.25
2022-09-07T00:36:18.438Z,100769.25
2022-09-07T00:38:46.564Z,100772.97
2022-09-07T00:41:15.401Z,100771.31
2022-09-07T00:43:46.651Z,100768.56
2022-09-07T00:46:21.486Z,100770.56
2022-09-07T00:49:11.153Z,100765.59
2022-09-07T00:51:43.343Z,100765.78
2022-09-07T00:54:17.269Z,100761.47
2022-09-07T00:56:48.994Z,100753.66
2022-09-07T00:59:20.248Z,100758.19
2022-09-07T01:01:48.306Z,100760.13
2022-09-07T01:04:16.413Z,100749.00
2022-09-07T01:06:44.395Z,100754.97
2022-09-07T01:09:16.945Z,100756.44
2022-09-07T01:11:50.790Z,100755.09
2022-09-07T01:14:22.889Z,100753.72
2022-09-07T01:17:13.692Z,100749.37
2022-09-07T01:20:03.793Z,100747.38
2022-09-07T01:23:08.265Z,100748.81
2022-09-07T01:25:53.137Z,100748.81
2022-09-07T01:28:27.335Z,100748.00
2022-09-07T01:31:19.998Z,100728.81
2022-09-07T01:33:54.067Z,100729.63
2022-09-07T01:36:55.900Z,100750.94
2022-09-07T01:39:39.014Z,100740.19
2022-09-07T01:42:15.590Z,100736.59
2022-09-07T01:44:55.055Z,100741.84
2022-09-07T01:47:30.209Z,100738.91
2022-09-07T01:50:08.435Z,100738.59
2022-09-07T01:52:47.390Z,100733.62
2022-09-07T01:55:21.768Z,100737.69
2022-09-07T01:58:02.113Z,100723.62
2022-09-07T02:00:31.228Z,100738.06
2022-09-07T02:03:13.092Z,100735.75
2022-09-07T02:05:51.008Z,100738.59
2022-09-07T02:08:24.266Z,100739.97
2022-09-07T02:11:02.313Z,100723.41
2022-09-07T02:13:45.671Z,100733.88
2022-09-07T02:16:44.668Z,100728.91
2022-09-07T02:19:16.991Z,100728.16
2022-09-07T02:21:52.124Z,100739.00
2022-09-07T02:24:31.259Z,100734.06
2022-09-07T02:27:00.024Z,100733.81
2022-09-07T02:29:30.855Z,100730.47
2022-09-07T02:31:59.041Z,100725.47
2022-09-07T02:34:27.643Z,100725.19
2022-09-07T02:36:59.939Z,100729.97
2022-09-07T02:39:27.752Z,100719.69
2022-09-07T02:41:55.813Z,100728.31
2022-09-07T02:44:32.503Z,100732.47
2022-09-07T02:47:48.635Z,100719.16
2022-09-07T02:51:02.252Z,100731.78
2022-09-07T02:53:44.458Z,100720.31
2022-09-07T02:56:34.632Z,100719.28
2022-09-07T02:59:23.732Z,100718.66
2022-09-07T03:01:54.358Z,100709.38
2022-09-07T03:04:47.613Z,100708.88
2022-09-07T03:07:17.088Z,100708.88
2022-09-07T03:09:50.289Z,100712.53
2022-09-07T03:12:18.015Z,100700.97
2022-09-07T03:14:46.132Z,100703.16
2022-09-07T03:17:14.166Z,100699.84
2022-09-07T03:19:41.763Z,100705.25
2022-09-07T03:22:09.647Z,100711.75
2022-09-07T03:24:37.114Z,100710.09
2022-09-07T03:27:04.979Z,100691.53
2022-09-07T03:29:32.782Z,100703.31
2022-09-07T03:32:00.334Z,100699.06
2022-09-07T03:34:27.804Z,100712.38
2022-09-07T03:36:55.629Z,100705.19
2022-09-07T03:39:24.147Z,100695.09
2022-09-07T03:41:51.639Z,100699.72
2022-09-07T03:44:20.602Z,100700.53
2022-09-07T03:46:48.169Z,100712.38
2022-09-07T03:49:16.085Z,100706.38
2022-09-07T03:51:43.919Z,100702.09
2022-09-07T03:54:11.467Z,100710.56
2022-09-07T03:56:39.128Z,100707.06
2022-09-07T03:59:07.030Z,100705.94
2022-09-07T04:01:34.841Z,100692.81
2022-09-07T04:04:02.931Z,100709.50
2022-09-07T04:06:31.440Z,100705.00
2022-09-07T04:09:07.071Z,100700.03
2022-09-07T04:11:35.939Z,100711.63
2022-09-07T04:14:03.791Z,100713.62
2022-09-07T04:16:31.440Z,100702.34
2022-09-07T04:18:59.513Z,100698.22
2022-09-07T04:21:29.271Z,100709.69
2022-09-07T04:23:57.218Z,100709.84
2022-09-07T04:26:27.575Z,100710.03
2022-09-07T04:28:55.883Z,100715.34
2022-09-07T04:31:24.095Z,100706.69
2022-09-07T04:33:52.864Z,100710.69
2022-09-07T04:36:20.866Z,100721.66
2022-09-07T04:39:01.416Z,100716.84
2022-09-07T04:41:31.028Z,100720.97
2022-09-07T04:44:01.244Z,100720.12
2022-09-07T04:46:35.163Z,100717.81
2022-09-07T04:49:07.157Z,100716.53
2022-09-07T04:51:36.097Z,100731.06
2022-09-07T04:54:04.235Z,100731.75
2022-09-07T04:56:32.800Z,100735.56
2022-09-07T04:59:04.620Z,100731.41
2022-09-07T05:01:32.211Z,100736.69
2022-09-07T05:04:01.271Z,100742.97
2022-09-07T05:06:29.239Z,100733.69
2022-09-07T05:08:59.246Z,100745.87
2022-09-07T05:11:29.514Z,100743.22
2022-09-07T05:14:02.115Z,100758.41
2022-09-07T05:16:31.009Z,100748.28
2022-09-07T05:19:01.471Z,100739.94
2022-09-07T05:21:32.724Z,100758.84
2022-09-07T05:24:01.496Z,100755.44
2022-09-07T05:26:33.328Z,100751.28
2022-09-07T05:31:52.204Z,100741.78
2022-09-07T05:34:35.489Z,100755.63
2022-09-07T05:37:03.260Z,100761.50
2022-09-07T05:39:31.296Z,100755.72
2022-09-07T05:41:58.938Z,100754.53
2022-09-07T05:47:16.669Z,100768.53
2022-09-07T05:49:44.772Z,100773.81
2022-09-07T05:52:46.078Z,100772.13
2022-09-07T05:55:29.327Z,100776.28
2022-09-07T05:57:58.573Z,100770.16
2022-09-07T06:00:26.054Z,100781.44
2022-09-07T06:02:53.953Z,100779.09
2022-09-07T06:05:21.505Z,100781.22
2022-09-07T06:07:49.104Z,100782.44
2022-09-07T06:13:05.616Z,100785.66
2022-09-07T06:15:34.615Z,100790.22
2022-09-07T06:18:02.366Z,100797.47
2022-09-07T06:20:29.887Z,100797.69
2022-09-07T06:22:59.463Z,100775.72
2022-09-07T06:25:26.988Z,100780.88
2022-09-07T06:27:54.519Z,100798.84
2022-09-07T06:30:22.575Z,100789.59
2022-09-07T06:32:50.037Z,100794.22
2022-09-07T06:35:17.835Z,100794.44
2022-09-07T06:37:46.124Z,100796.13
2022-09-07T06:40:13.754Z,100792.03
2022-09-07T06:42:41.403Z,100800.94
2022-09-07T06:45:11.233Z,100796.37
2022-09-07T06:47:41.752Z,100795.16
2022-09-07T06:50:10.124Z,100797.44
2022-09-07T06:55:27.888Z,100796.03
2022-09-07T06:57:55.539Z,100795.44
2022-09-07T07:00:23.136Z,100789.69
2022-09-07T07:02:53.323Z,100798.34
2022-09-07T07:05:21.597Z,100796.91
2022-09-07T07:07:49.202Z,100801.66
2022-09-07T07:10:19.770Z,100786.78
2022-09-07T07:12:49.797Z,100796.28
2022-09-07T07:15:17.636Z,100799.75
2022-09-07T07:17:48.010Z,100800.78
2022-09-07T07:20:21.202Z,100805.31
2022-09-07T07:22:52.258Z,100800.31
2022-09-07T07:25:21.373Z,100802.56
2022-09-07T07:27:49.177Z,100800.28
2022-09-07T07:30:18.663Z,100810.09
2022-09-07T07:32:47.793Z,100808.19
2022-09-07T07:35:15.541Z,100816.25
2022-09-07T07:37:43.250Z,100815.00
2022-09-07T07:42:42.868Z,100817.56
2022-09-07T07:47:59.851Z,100812.31
2022-09-07T07:50:31.778Z,100816.31
2022-09-07T07:55:48.151Z,100815.81
2022-09-07T07:58:16.386Z,100820.50
2022-09-07T08:00:54.331Z,100811.16
2022-09-07T08:03:23.309Z,100808.84
2022-09-07T08:05:50.980Z,100806.84
2022-09-07T08:08:19.407Z,100800.81
2022-09-07T08:10:47.945Z,100791.47
2022-09-07T08:13:19.261Z,100798.19
2022-09-07T08:15:47.379Z,100800.06
2022-09-07T08:18:16.890Z,100799.84
2022-09-07T08:20:44.612Z,100783.56
2022-09-07T08:23:12.387Z,100804.31
2022-09-07T08:25:49.599Z,100803.09
2022-09-07T08:28:17.576Z,100801.97
2022-09-07T08:30:45.060Z,100802.19
2022-09-07T08:33:12.501Z,100796.19
2022-09-07T08:35:41.349Z,100792.25
2022-09-07T08:38:08.840Z,100796.78
2022-09-07T08:40:38.064Z,100788.22
2022-09-07T08:43:33.678Z,100789.13
2022-09-07T08:46:37.406Z,100795.59
2022-09-07T08:49:13.633Z,100791.38
2022-09-07T08:51:58.985Z,100792.94
2022-09-07T08:54:27.544Z,100792.16
2022-09-07T09:00:07.912Z,100772.81
2022-09-07T09:02:42.463Z,100769.63
2022-09-07T09:05:24.587Z,100767.28
2022-09-07T09:08:13.036Z,100763.06
2022-09-07T09:11:02.013Z,100767.97
2022-09-07T09:13:46.869Z,100768.44
2022-09-07T09:16:28.989Z,100767.59
2022-09-07T09:19:08.624Z,100769.66
2022-09-07T09:21:36.849Z,100766.00
2022-09-07T09:24:16.660Z,100754.66
2022-09-07T09:29:23.448Z,100757.72
2022-09-07T09:31:51.223Z,100757.34
2022-09-07T09:34:23.880Z,100755.19
2022-09-07T09:36:56.774Z,100758.69
2022-09-07T09:39:33.377Z,100756.81
2022-09-07T09:42:10.130Z,100752.72
2022-09-07T09:44:38.616Z,100749.72
2022-09-07T09:49:56.376Z,100748.06
2022-09-07T09:52:29.716Z,100737.84
2022-09-07T09:55:17.304Z,100747.91
2022-09-07T10:01:21.016Z,100738.97
2022-09-07T10:06:19.969Z,100732.44
2022-09-07T10:09:00.089Z,100730.97
2022-09-07T10:14:43.891Z,100731.13
2022-09-07T10:17:14.309Z,100726.38
2022-09-07T10:19:43.168Z,100723.16
2022-09-07T10:22:38.813Z,100730.09
2022-09-07T10:25:28.338Z,100730.44
2022-09-07T10:28:04.081Z,100734.47
2022-09-07T10:30:56.451Z,100725.50
2022-09-07T10:33:40.611Z,100724.09
2022-09-07T10:36:34.984Z,100726.47
2022-09-07T10:39:08.436Z,100725.37
2022-09-07T10:42:13.723Z,100706.34
2022-09-07T10:44:44.311Z,100720.31
2022-09-07T10:47:25.161Z,100718.87
2022-09-07T10:50:23.273Z,100718.75
2022-09-07T10:52:54.029Z,100709.59
2022-09-07T10:55:34.543Z,100711.22
2022-09-07T11:01:28.585Z,100706.69
2022-09-07T11:04:17.829Z,100700.22
2022-09-07T11:06:50.381Z,100705.88
2022-09-07T11:09:45.466Z,100707.56
2022-09-07T11:12:24.854Z,100707.31
2022-09-07T11:15:13.302Z,100703.25
2022-09-07T11:17:49.375Z,100693.16
2022-09-07T11:20:29.633Z,100695.66
2022-09-07T11:23:32.133Z,100700.81
2022-09-07T11:26:18.680Z,100697.69
2022-09-07T11:29:29.304Z,100686.84
2022-09-07T11:31:44.892Z,100693.38
2022-09-07T11:34:24.126Z,100682.97
2022-09-07T11:37:01.519Z,100689.06
2022-09-07T11:39:40.964Z,100681.88
2022-09-07T11:45:18.384Z,100673.50
2022-09-07T11:48:07.742Z,100670.78
2022-09-07T11:50:42.879Z,100675.13
2022-09-07T11:53:36.496Z,100666.84
2022-09-07T11:56:25.277Z,100668.28
2022-09-07T11:59:36.669Z,100660.06
2022-09-07T12:03:02.100Z,100658.44
2022-09-07T12:05:48.888Z,100656.31
2022-09-07T12:08:26.084Z,100657.37
2022-09-07T12:10:53.789Z,100668.06
2022-09-07T12:13:51.833Z,100657.47
2022-09-07T12:16:33.445Z,100669.38
2022-09-07T12:19:20.417Z,100676.72
2022-09-07T12:21:56.195Z,100672.66
2022-09-07T12:24:38.428Z,100670.97
2022-09-07T12:27:12.149Z,100659.19
2022-09-07T12:29:45.225Z,100654.16
2022-09-07T12:35:26.770Z,100652.47
2022-09-07T12:37:56.217Z,100650.22
2022-09-07T12:40:36.083Z,100656.97
2022-09-07T12:43:12.705Z,100655.13
2022-09-07T12:45:51.355Z,100651.63
2022-09-07T12:48:18.976Z,100652.19
2022-09-07T12:54:34.376Z,100650.06
2022-09-07T12:57:29.706Z,100642.25
2022-09-07T13:00:19.086Z,100641.69
2022-09-07T13:09:16.612Z,100637.75
2022-09-07T13:11:45.669Z,100625.81
2022-09-07T13:14:13.380Z,100623.13
2022-09-07T13:19:46.262Z,100614.56
2022-09-07T13:22:32.005Z,100607.72
2022-09-07T13:25:02.056Z,100612.34
2022-09-07T13:27:57.741Z,100611.25
2022-09-07T13:30:47.980Z,100603.84
2022-09-07T13:33:24.875Z,100604.75
2022-09-07T13:35:55.386Z,100598.50
2022-09-07T13:38:23.516Z,100607.75
2022-09-07T13:40:52.702Z,100594.69
2022-09-07T13:43:24.882Z,100610.22
2022-09-07T13:45:55.457Z,100601.94
2022-09-07T13:48:35.347Z,100589.00
2022-09-07T13:51:13.270Z,100594.41
2022-09-07T13:53:56.151Z,100589.84
2022-09-07T13:56:26.868Z,100577.06
2022-09-07T13:58:55.667Z,100582.75
2022-09-07T14:01:26.446Z,100584.38
2022-09-07T14:04:06.634Z,100575.69
2022-09-07T14:06:36.284Z,100573.78
2022-09-07T14:09:16.320Z,100570.50
2022-09-07T14:11:43.664Z,100570.88
2022-09-07T14:14:18.896Z,100558.84
2022-09-07T14:17:00.763Z,100563.66
2022-09-07T14:19:45.190Z,100563.13
2022-09-07T14:22:16.099Z,100555.53
2022-09-07T14:24:49.727Z,100553.59
2022-09-07T14:27:34.999Z,100556.06
2022-09-07T14:30:27.996Z,100561.88
2022-09-07T14:33:02.536Z,100563.22
2022-09-07T14:35:36.840Z,100566.13
2022-09-07T14:38:15.537Z,100557.78
2022-09-07T14:40:45.133Z,100564.59
2022-09-07T14:43:37.253Z,100550.41
2022-09-07T14:46:10.505Z,100556.09
2022-09-07T14:48:39.873Z,100554.69
2022-09-07T14:51:29.821Z,100560.44
2022-09-07T14:53:58.325Z,100557.53
2022-09-07T14:56:31.923Z,100553.94
2022-09-07T14:58:59.295Z,100556.19
2022-09-07T15:01:43.110Z,100558.59
2022-09-07T15:04:19.220Z,100561.00
2022-09-07T15:07:02.945Z,100553.91
2022-09-07T15:09:38.035Z,100555.97
2022-09-07T15:12:36.422Z,100559.69
2022-09-07T15:15:41.365Z,100561.84
2022-09-07T15:18:47.630Z,100561.19
2022-09-07T15:21:16.360Z,100556.81
2022-09-07T15:23:44.104Z,100554.41
2022-09-07T15:27:02.046Z,100557.94
2022-09-07T15:29:14.972Z,100557.38
2022-09-07T15:31:47.367Z,100555.63
2022-09-07T15:34:26.866Z,100555.00
2022-09-07T15:36:57.171Z,100553.56
2022-09-07T15:39:29.891Z,100551.78
2022-09-07T15:41:59.029Z,100545.16
2022-09-07T15:44:28.819Z,100543.72
2022-09-07T15:49:50.083Z,100554.97
2022-09-07T15:52:18.652Z,100543.81
2022-09-07T15:54:46.693Z,100539.97
2022-09-07T16:00:02.115Z,100540.94
2022-09-07T16:05:31.013Z,100541.59
2022-09-07T16:11:05.307Z,100547.84
2022-09-07T16:13:33.752Z,100548.00
2022-09-07T16:16:05.722Z,100547.59
2022-09-07T16:18:34.359Z,100542.25
2022-09-07T16:21:12.191Z,100543.47
2022-09-07T16:23:42.928Z,100539.50
2022-09-07T16:26:11.936Z,100532.84
2022-09-07T16:28:41.592Z,100541.59
2022-09-07T16:31:15.185Z,100545.50
2022-09-07T16:33:42.998Z,100539.91
2022-09-07T16:36:16.146Z,100547.31
2022-09-07T16:38:48.210Z,100539.25
2022-09-07T16:41:20.985Z,100546.19
2022-09-07T16:43:49.451Z,100551.12
2022-09-07T16:46:19.611Z,100540.09
2022-09-07T16:48:48.318Z,100534.72
2022-09-07T16:51:21.202Z,100532.66
2022-09-07T16:53:51.272Z,100529.41
2022-09-07T16:56:22.016Z,100533.25
2022-09-07T16:58:51.898Z,100536.75
2022-09-07T17:01:23.553Z,100525.97
2022-09-07T17:03:52.012Z,100532.16
2022-09-07T17:06:22.216Z,100525.00
2022-09-07T17:08:49.731Z,100528.75
2022-09-07T17:11:29.750Z,100529.69
2022-09-07T17:13:58.884Z,100537.47
2022-09-07T17:16:29.776Z,100531.00
2022-09-07T17:21:47.012Z,100536.22
2022-09-07T17:24:14.744Z,100535.72
2022-09-07T17:26:42.588Z,100526.22
2022-09-07T17:29:13.206Z,100533.09
2022-09-07T17:34:30.209Z,100531.81
2022-09-07T17:37:00.554Z,100545.91
2022-09-07T17:39:28.960Z,100547.62
2022-09-07T17:41:56.720Z,100547.34
2022-09-07T17:44:24.469Z,100556.44
2022-09-07T17:46:51.868Z,100553.16
2022-09-07T17:49:19.446Z,100555.69
2022-09-07T17:51:47.307Z,100553.47
2022-09-07T17:54:17.359Z,100556.59
2022-09-07T17:56:45.391Z,100570.09
2022-09-07T18:02:01.284Z,100566.66
2022-09-07T18:04:29.051Z,100580.19
2022-09-07T18:06:56.683Z,100578.78
2022-09-07T18:09:24.159Z,100580.47
2022-09-07T18:11:51.808Z,100581.94
2022-09-07T18:14:19.647Z,100586.72
2022-09-07T18:16:49.832Z,100585.75
2022-09-07T18:19:18.638Z,100588.06
2022-09-07T18:21:47.988Z,100593.28
2022-09-07T18:24:21.492Z,100593.72
2022-09-07T18:26:52.050Z,100587.13
2022-09-07T18:29:33.505Z,100594.56
2022-09-07T18:32:08.054Z,100589.03
2022-09-07T18:34:38.443Z,100591.09
2022-09-07T18:37:06.790Z,100591.91
2022-09-07T18:39:35.481Z,100589.22
2022-09-07T18:42:03.567Z,100594.16
2022-09-07T18:47:27.524Z,100590.88
2022-09-07T18:49:56.856Z,100585.13
2022-09-07T18:55:12.428Z,100576.75
2022-09-07T18:57:39.938Z,100580.69
2022-09-07T19:00:09.760Z,100562.59
2022-09-07T19:02:37.633Z,100575.81
2022-09-07T19:07:53.463Z,100576.66
2022-09-07T19:10:20.875Z,100580.22
2022-09-07T19:12:48.310Z,100585.41
2022-09-07T19:15:16.050Z,100574.53
2022-09-07T19:17:43.742Z,100586.31
2022-09-07T19:20:11.388Z,100580.59
2022-09-07T19:22:39.288Z,100579.78
2022-09-07T19:25:06.939Z,100579.19
2022-09-07T19:27:34.565Z,100580.00
2022-09-07T19:30:02.366Z,100584.12
2022-09-07T19:32:29.907Z,100588.50
2022-09-07T19:34:57.456Z,100588.56
2022-09-07T19:37:25.648Z,100575.78
2022-09-07T19:39:56.697Z,100570.84
2022-09-07T19:42:25.222Z,100568.38
2022-09-07T19:44:54.062Z,100560.53
2022-09-07T19:47:21.816Z,100550.03
2022-09-07T19:49:49.378Z,100552.72
2022-09-07T19:52:17.040Z,100550.88
2022-09-07T19:54:44.443Z,100552.19
2022-09-07T19:57:11.823Z,100543.91
2022-09-07T19:59:39.572Z,100552.56
2022-09-07T20:02:10.010Z,100549.28
2022-09-07T20:04:37.884Z,100539.59
2022-09-07T20:07:06.624Z,100547.03
2022-09-07T20:09:34.124Z,100554.66
2022-09-07T20:12:03.717Z,100552.81
2022-09-07T20:14:31.109Z,100549.13
2022-09-07T20:16:58.453Z,100551.19
2022-09-07T20:19:26.128Z,100548.13
2022-09-07T20:21:55.772Z,100551.81
2022-09-07T20:24:23.480Z,100543.19
2022-09-07T20:26:51.185Z,100545.84
2022-09-07T20:29:34.067Z,100543.19
2022-09-07T20:32:02.692Z,100548.94
2022-09-07T20:34:30.089Z,100538.44
2022-09-07T20:36:57.667Z,100543.16
2022-09-07T20:39:25.588Z,100538.03
2022-09-07T20:41:53.231Z,100537.00
2022-09-07T20:44:20.777Z,100534.94
2022-09-07T20:46:48.574Z,100531.44
2022-09-07T20:49:16.082Z,100536.78
2022-09-07T20:51:43.633Z,100535.34
2022-09-07T20:54:11.765Z,100534.75
2022-09-07T20:56:39.354Z,100531.66
2022-09-07T20:59:06.879Z,100530.03
2022-09-07T21:01:35.194Z,100531.06
2022-09-07T21:04:03.137Z,100527.56
2022-09-07T21:06:31.324Z,100515.22
2022-09-07T21:08:59.860Z,100538.25
2022-09-07T21:11:35.375Z,100535.81
2022-09-07T21:14:06.237Z,100531.28
2022-09-07T21:16:34.771Z,100534.97
2022-09-07T21:19:03.995Z,100535.81
2022-09-07T21:21:38.575Z,100532.72
2022-09-07T21:24:14.122Z,100537.47
2022-09-07T21:26:41.744Z,100545.69
2022-09-07T21:29:16.712Z,100534.78
2022-09-07T21:31:44.888Z,100544.25
2022-09-07T21:34:12.985Z,100540.97
2022-09-07T21:36:40.408Z,100540.38
2022-09-07T21:39:11.429Z,100530.06
2022-09-07T21:41:43.339Z,100532.16
2022-09-07T21:44:13.452Z,100536.69
2022-09-07T21:46:42.432Z,100531.72
2022-09-07T21:49:10.040Z,100547.19
2022-09-07T21:51:38.007Z,100542.44
2022-09-07T21:54:05.424Z,100542.66
2022-09-07T21:56:32.973Z,100536.88
2022-09-07T21:59:02.003Z,100544.50
2022-09-07T22:01:30.437Z,100549.66
2022-09-07T22:04:00.817Z,100545.53
2022-09-07T22:06:28.460Z,100550.28
2022-09-07T22:08:56.418Z,100547.19
2022-09-07T22:11:26.220Z,100546.53
2022-09-07T22:13:59.289Z,100554.56
2022-09-07T22:16:27.126Z,100558.06
2022-09-07T22:18:55.818Z,100556.63
2022-09-07T22:21:25.485Z,100549.00
2022-09-07T22:23:57.146Z,100551.25
2022-09-07T22:26:28.143Z,100542.63
2022-09-07T22:28:56.475Z,100529.25
2022-09-07T22:31:27.338Z,100546.94
2022-09-07T22:33:56.736Z,100540.97
2022-09-07T22:36:31.133Z,100540.97
2022-09-07T22:39:01.211Z,100539.94
2022-09-07T22:41:32.453Z,100544.88
2022-09-07T22:44:00.033Z,100542.81
2022-09-07T22:46:29.598Z,100538.69
2022-09-07T22:48:58.555Z,100541.19
2022-09-07T22:51:26.842Z,100538.69
2022-09-07T22:53:54.846Z,100538.25
2022-09-07T22:56:25.391Z,100546.50
2022-09-07T22:58:55.945Z,100534.16
2022-09-07T23:01:24.828Z,100532.53
2022-09-07T23:03:53.388Z,100544.44
2022-09-07T23:06:28.050Z,100549.16
2022-09-07T23:08:57.910Z,100537.22
2022-09-07T23:11:26.487Z,100537.22
2022-09-07T23:13:59.375Z,100543.81
2022-09-07T23:16:28.032Z,100546.06
2022-09-07T23:18:57.799Z,100544.63
2022-09-07T23:21:26.175Z,100541.31
2022-09-07T23:23:56.800Z,100538.63
2022-09-07T23:26:26.081Z,100543.19
2022-09-07T23:28:58.736Z,100534.91
2022-09-07T23:31:29.296Z,100533.28
2022-09-07T23:33:57.644Z,100534.69
2022-09-07T23:36:25.456Z,100527.72
2022-09-07T23:38:57.047Z,100536.16
2022-09-07T23:41:25.883Z,100526.69
2022-09-07T23:43:54.028Z,100514.91
2022-09-07T23:46:21.978Z,100531.38
2022-09-07T23:48:50.491Z,100523.78
2022-09-07T23:51:23.402Z,100522.31
2022-09-07T23:53:52.865Z,100525.81
2022-09-07T23:56:21.653Z,100531.75
2022-09-07T23:58:49.191Z,100516.09
